Time;durP1;ratioP1;P1;durP2;ratioP2;P2;SDS_P1;SDS_P2;PMS_P1;PMS_P2;Temp;Humidity;BMP_temperature;BMP_pressure;BME280_temperature;BME280_humidity;BME280_pressure;Samples;Min_cycle;Max_cycle;Signal;HPM_P1;HPM_P2
2022/07/11 00:02:21;;;;;;;1.85;0.60;;;;;;;14.57;60.58;100551.16;5587330;31;34725;-67
2022/07/11 00:05:24;;;;;;;0.82;0.60;;;;;;;14.47;61.02;100547.97;5587801;31;32997;-67
2022/07/11 00:08:27;;;;;;;3.62;0.70;;;;;;;14.44;61.35;100545.66;5590810;31;34132;-67
2022/07/11 00:11:30;;;;;;;1.65;0.50;;;;;;;14.44;61.35;100554.47;5591110;31;35145;-69
2022/07/11 00:14:33;;;;;;;1.55;0.60;;;;;;;14.46;61.18;100549.81;5590840;31;34630;-67
2022/07/11 00:17:36;;;;;;;2.30;0.60;;;;;;;14.44;61.27;100556.31;5590129;31;33886;-66
2022/07/11 00:20:38;;;;;;;1.45;0.50;;;;;;;14.39;61.55;100562.22;5589947;31;34652;-69
2022/07/11 00:23:41;;;;;;;1.83;0.73;;;;;;;14.31;61.98;100562.31;5590281;31;35181;-67
2022/07/11 00:26:46;;;;;;;4.28;0.77;;;;;;;14.35;61.92;100567.09;5590563;31;34769;-68
2022/07/11 00:29:49;;;;;;;1.92;0.68;;;;;;;14.48;61.55;100566.44;5590407;31;34087;-68
2022/07/11 00:32:51;;;;;;;3.05;0.60;;;;;;;14.38;61.97;100563.25;5590681;31;34796;-67
2022/07/11 00:35:54;;;;;;;1.40;0.60;;;;;;;14.35;62.21;100560.94;5590532;31;33976;-67
2022/07/11 00:38:57;;;;;;;1.52;0.68;;;;;;;14.29;62.53;100559.81;5590533;31;34636;-67
2022/07/11 00:42:00;;;;;;;1.45;0.60;;;;;;;14.34;62.49;100557.44;5590531;31;34028;-67
2022/07/11 00:45:03;;;;;;;3.53;0.80;;;;;;;14.27;62.67;100553.88;5590514;31;34175;-69
2022/07/11 00:48:06;;;;;;;0.88;0.60;;;;;;;14.20;62.99;100557.47;5590504;31;34196;-68
2022/07/11 00:51:08;;;;;;;2.05;0.57;;;;;;;14.34;62.69;100554.75;5590383;31;33970;-68
2022/07/11 00:54:14;;;;;;;1.40;0.60;;;;;;;14.27;63.01;100561.03;5590531;31;34412;-67
2022/07/11 00:57:16;;;;;;;0.88;0.60;;;;;;;14.21;63.41;100557.28;5590266;31;34379;-67
2022/07/11 01:00:20;;;;;;;2.08;0.80;;;;;;;14.20;63.58;100560.13;5590441;31;33898;-67
2022/07/11 01:03:22;;;;;;;1.65;0.70;;;;;;;14.20;63.80;100563.63;5589653;31;33948;-67
2022/07/11 01:06:25;;;;;;;2.40;0.65;;;;;;;14.16;64.03;100566.84;5589753;31;32509;-66
2022/07/11 01:09:28;;;;;;;2.03;0.80;;;;;;;14.08;64.53;100562.47;5589705;31;34383;-67
2022/07/11 01:12:31;;;;;;;1.12;0.50;;;;;;;14.02;64.91;100562.37;5590561;31;33825;-66
2022/07/11 01:15:34;;;;;;;1.80;0.70;;;;;;;13.93;65.38;100557.12;5590241;31;33914;-67
2022/07/11 01:18:37;;;;;;;1.77;0.70;;;;;;;13.84;66.00;100563.59;5590099;31;33956;-68
2022/07/11 01:21:45;;;;;;;2.17;0.95;;;;;;;13.82;66.27;100562.09;5590135;31;34045;-67
2022/07/11 01:24:48;;;;;;;2.25;0.80;;;;;;;13.77;66.75;100557.31;5590521;31;34389;-67
2022/07/11 01:27:51;;;;;;;2.35;0.80;;;;;;;13.72;67.21;100559.72;5589219;31;34745;-67
2022/07/11 01:30:53;;;;;;;2.87;0.60;;;;;;;13.65;67.53;100558.78;5589987;31;33968;-67
2022/07/11 01:33:57;;;;;;;3.80;0.77;;;;;;;13.68;67.79;100565.59;5590084;31;34109;-67
2022/07/11 01:37:00;;;;;;;1.00;0.70;;;;;;;13.66;67.87;100557.75;5589960;31;33980;-69
2022/07/11 01:40:03;;;;;;;1.42;0.60;;;;;;;13.62;68.18;100561.81;5589396;31;32798;-67
2022/07/11 01:43:06;;;;;;;1.62;0.62;;;;;;;13.67;68.44;100558.59;5589281;31;35187;-67
2022/07/11 01:46:09;;;;;;;1.42;0.73;;;;;;;13.62;68.33;100559.16;5590008;31;34593;-67
2022/07/11 01:49:11;;;;;;;1.75;0.60;;;;;;;13.57;68.72;100550.03;5589295;31;32436;-67
2022/07/11 01:52:14;;;;;;;2.00;0.70;;;;;;;13.55;68.86;100563.56;5590018;31;33995;-67
2022/07/11 01:55:17;;;;;;;1.85;0.90;;;;;;;13.53;69.33;100556.75;5589953;31;34275;-67
2022/07/11 01:58:19;;;;;;;1.62;0.70;;;;;;;13.56;69.29;100551.88;5588947;31;34104;-67
2022/07/11 02:01:22;;;;;;;1.52;0.75;;;;;;;13.56;69.21;100549.22;5589899;31;34673;-68
2022/07/11 02:04:25;;;;;;;1.15;0.70;;;;;;;13.52;69.36;100547.91;5590256;31;34719;-68
2022/07/11 02:10:51;;;;;;;4.45;1.00;;;;;;;13.53;69.66;100541.59;5589771;31;34011;-67
2022/07/11 02:13:54;;;;;;;1.27;0.60;;;;;;;13.50;69.89;100549.97;5589682;31;34650;-67
2022/07/11 02:16:57;;;;;;;1.17;0.70;;;;;;;13.48;70.13;100543.97;5589690;31;34328;-67
2022/07/11 02:19:59;;;;;;;1.40;0.60;;;;;;;13.34;70.90;100550.94;5589767;31;33904;-68
2022/07/11 02:23:03;;;;;;;3.08;0.82;;;;;;;13.27;71.33;100544.66;5589673;31;34137;-68
2022/07/11 02:26:05;;;;;;;1.37;0.75;;;;;;;13.23;71.86;100543.38;5589607;31;34265;-67
2022/07/11 02:29:08;;;;;;;1.75;0.80;;;;;;;13.34;71.44;100542.13;5588637;31;34162;-67
2022/07/11 02:32:10;;;;;;;2.10;0.90;;;;;;;13.27;71.78;100558.00;5589688;31;33978;-67
2022/07/11 02:35:13;;;;;;;1.92;0.70;;;;;;;13.24;71.86;100558.38;5588900;31;33856;-69
2022/07/11 02:38:16;;;;;;;2.33;0.80;;;;;;;13.23;72.09;100555.87;5589566;31;34673;-68
2022/07/11 02:41:19;;;;;;;2.45;0.70;;;;;;;13.21;72.41;100569.41;5589496;31;34058;-68
2022/07/11 02:44:21;;;;;;;2.47;0.70;;;;;;;13.14;72.52;100563.13;5588770;31;33883;-67
2022/07/11 02:47:24;;;;;;;2.08;0.85;;;;;;;13.08;72.83;100572.63;5589873;31;34280;-67
2022/07/11 02:50:27;;;;;;;3.33;1.00;;;;;;;13.00;73.43;100578.03;5589767;31;34000;-66
2022/07/11 02:53:30;;;;;;;2.67;0.80;;;;;;;12.88;73.89;100573.28;5589674;31;33974;-67
2022/07/11 02:56:32;;;;;;;2.15;0.80;;;;;;;12.94;74.06;100564.56;5589502;31;34669;-68
2022/07/11 02:59:35;;;;;;;3.78;1.00;;;;;;;12.91;74.03;100567.59;5588421;31;34827;-67
2022/07/11 03:02:37;;;;;;;1.00;0.65;;;;;;;12.93;73.96;100570.91;5589318;31;33905;-67
2022/07/11 03:05:39;;;;;;;2.17;0.90;;;;;;;12.90;74.23;100571.28;5589196;31;33901;-67
2022/07/11 03:08:42;;;;;;;2.15;0.90;;;;;;;12.86;74.41;100568.16;5589560;31;34024;-67
2022/07/11 03:11:45;;;;;;;3.62;0.80;;;;;;;12.83;74.55;100565.81;5589505;31;34032;-67
2022/07/11 03:14:48;;;;;;;2.08;1.00;;;;;;;12.79;75.04;100569.00;5589127;31;33939;-68
2022/07/11 03:17:51;;;;;;;2.45;0.80;;;;;;;12.76;75.23;100574.69;5588988;31;34764;-68
2022/07/11 03:20:54;;;;;;;2.25;0.80;;;;;;;12.76;75.33;100580.03;5589091;31;34671;-68
2022/07/11 03:23:56;;;;;;;4.70;1.30;;;;;;;12.73;75.56;100573.22;5589030;31;33878;-68
2022/07/11 03:26:59;;;;;;;2.75;1.00;;;;;;;12.69;75.96;100571.06;5588830;31;34164;-69
2022/07/11 03:30:03;;;;;;;2.30;0.98;;;;;;;12.63;76.21;100578.75;5587935;31;32752;-69
2022/07/11 03:33:06;;;;;;;1.73;0.93;;;;;;;12.66;76.27;100577.59;5588882;31;33981;-67
2022/07/11 03:36:09;;;;;;;3.25;1.17;;;;;;;12.79;75.52;100567.19;5588782;31;33980;-66
2022/07/11 03:39:13;;;;;;;2.92;0.70;;;;;;;12.98;74.55;100576.53;5588597;31;35265;-67
2022/07/11 03:42:16;;;;;;;3.03;1.00;;;;;;;13.10;74.10;100576.94;5590594;31;34264;-68
2022/07/11 03:45:18;;;;;;;2.80;0.90;;;;;;;13.30;73.06;100575.47;5590966;31;34293;-67
2022/07/11 03:48:21;;;;;;;3.53;0.90;;;;;;;13.48;72.13;100584.78;5590967;31;33960;-68
2022/07/11 03:51:24;;;;;;;4.30;1.10;;;;;;;13.66;71.34;100580.94;5577260;31;32845;-67
2022/07/11 03:54:27;;;;;;;2.47;0.90;;;;;;;13.83;70.63;100579.75;5590841;31;34026;-67
2022/07/11 03:57:29;;;;;;;4.53;0.98;;;;;;;13.96;70.32;100582.59;5590900;31;34367;-68
2022/07/11 04:00:32;;;;;;;1.05;0.73;;;;;;;14.20;69.00;100584.97;5590784;31;35427;-68
2022/07/11 04:03:35;;;;;;;3.35;1.12;;;;;;;14.26;68.55;100594.91;5590895;31;33997;-66
2022/07/11 04:06:38;;;;;;;2.55;0.62;;;;;;;14.19;68.63;100591.31;5590825;31;34396;-69
2022/07/11 04:09:41;;;;;;;4.53;1.10;;;;;;;14.19;69.03;100596.66;5591107;31;34168;-68
2022/07/11 04:12:44;;;;;;;2.00;1.00;;;;;;;14.32;68.78;100598.69;5590905;31;33924;-66
2022/07/11 04:15:46;;;;;;;3.33;0.80;;;;;;;14.32;68.30;100604.84;5590852;31;34617;-68
2022/07/11 04:18:49;;;;;;;3.97;0.90;;;;;;;14.44;68.19;100599.03;5590780;31;34005;-68
2022/07/11 04:21:52;;;;;;;4.75;1.00;;;;;;;14.61;67.76;100608.50;5591018;31;34078;-68
2022/07/11 04:24:54;;;;;;;4.90;1.00;;;;;;;14.84;66.67;100600.31;5591104;31;33834;-68
2022/07/11 04:27:57;;;;;;;3.87;0.90;;;;;;;14.84;66.13;100606.47;5590564;31;33930;-69
2022/07/11 04:31:00;;;;;;;3.80;0.80;;;;;;;14.93;65.93;100602.66;5590823;31;35520;-68
2022/07/11 04:34:03;;;;;;;5.45;1.10;;;;;;;15.06;65.67;100609.97;5590653;31;33917;-67
2022/07/11 04:37:05;;;;;;;7.20;1.05;;;;;;;14.98;65.87;100607.44;5590510;31;34264;-68
2022/07/11 04:40:08;;;;;;;4.22;0.95;;;;;;;15.04;65.76;100606.69;5589918;31;34628;-68
2022/07/11 04:43:15;;;;;;;3.80;1.10;;;;;;;14.85;66.13;100608.12;5590434;31;33982;-67
2022/07/11 04:46:17;;;;;;;4.18;1.00;;;;;;;14.84;66.85;100602.97;5590531;31;33933;-68
2022/07/11 04:49:20;;;;;;;3.75;1.20;;;;;;;15.11;66.65;100608.38;5590285;31;34794;-68
2022/07/11 04:52:26;;;;;;;2.30;1.00;;;;;;;15.08;66.86;100618.62;5589925;31;34683;-68
2022/07/11 04:55:29;;;;;;;1.75;0.93;;;;;;;15.09;66.78;100617.63;5589725;31;34749;-68
2022/07/11 04:58:32;;;;;;;2.67;1.08;;;;;;;15.04;66.65;100610.19;5590340;31;34299;-68
2022/07/11 05:01:35;;;;;;;2.67;1.05;;;;;;;15.26;66.05;100624.34;5590602;31;34219;-67
2022/07/11 05:04:38;;;;;;;2.12;1.10;;;;;;;15.36;64.92;100621.34;5590425;31;34648;-69
2022/07/11 05:07:40;;;;;;;2.78;1.02;;;;;;;15.28;64.76;100618.81;5590278;31;34559;-68
2022/07/11 05:10:43;;;;;;;3.62;0.90;;;;;;;15.36;64.76;100624.84;5590241;31;33922;-68
2022/07/11 05:13:46;;;;;;;2.00;1.00;;;;;;;15.50;64.24;100623.94;5590305;31;35234;-68
2022/07/11 05:16:49;;;;;;;4.53;0.70;;;;;;;15.38;64.81;100628.16;5589311;31;34019;-68
2022/07/11 05:19:51;;;;;;;2.80;1.00;;;;;;;15.29;65.05;100623.16;5589398;31;34585;-68
2022/07/11 05:22:54;;;;;;;2.45;1.05;;;;;;;15.41;64.67;100634.97;5590278;31;33865;-69
2022/07/11 05:25:57;;;;;;;4.90;1.10;;;;;;;15.50;64.00;100631.13;5590043;31;33993;-67
2022/07/11 05:28:59;;;;;;;4.62;1.30;;;;;;;15.78;64.17;100629.31;5589899;31;33900;-67
2022/07/11 05:32:02;;;;;;;3.62;1.42;;;;;;;15.91;62.71;100628.59;5589123;31;34237;-68
2022/07/11 05:35:06;;;;;;;3.20;1.00;;;;;;;15.90;62.62;100635.78;5590089;31;34150;-68
2022/07/11 05:38:08;;;;;;;3.78;1.05;;;;;;;16.03;62.54;100640.37;5575843;31;34023;-68
2022/07/11 05:41:11;;;;;;;5.10;1.00;;;;;;;16.16;62.38;100635.12;5589884;31;34001;-68
2022/07/11 05:44:14;;;;;;;2.72;1.10;;;;;;;16.14;61.76;100639.00;5589772;31;33975;-68
2022/07/11 05:47:17;;;;;;;3.12;1.10;;;;;;;16.29;62.23;100647.75;5589256;31;32872;-68
2022/07/11 05:50:20;;;;;;;2.70;0.90;;;;;;;16.27;61.38;100639.91;5589875;31;34000;-68
2022/07/11 05:53:22;;;;;;;3.87;0.85;;;;;;;16.20;61.43;100630.19;5589653;31;33914;-68
2022/07/11 05:56:28;;;;;;;4.07;1.00;;;;;;;16.47;60.32;100637.31;5589807;31;34031;-68
2022/07/11 05:59:31;;;;;;;4.15;1.40;;;;;;;16.71;59.69;100641.34;5589698;31;33953;-70
2022/07/11 06:02:33;;;;;;;1.58;0.80;;;;;;;16.72;59.11;100646.50;5589128;31;34927;-68
2022/07/11 06:05:36;;;;;;;7.05;1.00;;;;;;;16.64;59.31;100649.38;5589123;31;34565;-68
2022/07/11 06:08:42;;;;;;;3.67;0.98;;;;;;;16.64;59.93;100641.34;5589631;31;34246;-68
2022/07/11 06:11:44;;;;;;;2.20;1.08;;;;;;;17.02;58.07;100648.88;5589810;31;34282;-68
2022/07/11 06:14:47;;;;;;;1.98;0.80;;;;;;;16.80;58.33;100653.53;5589080;31;32448;-69
2022/07/11 06:17:50;;;;;;;3.40;1.25;;;;;;;16.88;58.77;100654.19;5588375;31;32789;-68
2022/07/11 06:20:53;;;;;;;4.75;1.02;;;;;;;17.19;57.62;100650.94;5588931;31;34646;-69
2022/07/11 06:23:56;;;;;;;2.47;0.85;;;;;;;17.42;56.43;100653.25;5589508;31;34015;-69
2022/07/11 06:27:00;;;;;;;3.40;1.08;;;;;;;17.59;57.05;100651.84;5589295;31;33922;-68
2022/07/11 06:30:03;;;;;;;4.32;1.25;;;;;;;17.55;56.10;100645.22;5588608;31;33096;-68
2022/07/11 06:33:06;;;;;;;3.62;0.98;;;;;;;17.45;56.38;100652.00;5589337;31;34854;-68
2022/07/11 06:36:10;;;;;;;3.25;0.90;;;;;;;17.80;55.39;100643.56;5589326;31;34470;-68
2022/07/11 06:39:13;;;;;;;1.90;0.90;;;;;;;17.99;55.19;100647.25;5589320;31;34070;-68
2022/07/11 06:42:16;;;;;;;2.95;0.90;;;;;;;18.01;54.64;100644.37;5589321;31;34377;-68
2022/07/11 06:45:27;;;;;;;3.78;0.95;;;;;;;18.16;54.87;100651.13;5589319;31;33965;-68
2022/07/11 06:48:30;;;;;;;3.55;1.08;;;;;;;18.30;53.64;100651.91;5588346;31;34609;-68
2022/07/11 06:51:33;;;;;;;3.80;0.90;;;;;;;18.59;54.04;100646.06;5589042;31;34022;-67
2022/07/11 06:54:36;;;;;;;3.15;0.90;;;;;;;18.42;53.48;100652.94;5589190;31;35482;-67
2022/07/11 06:57:38;;;;;;;2.95;0.90;;;;;;;18.23;54.30;100660.00;5589083;31;34629;-67
2022/07/11 07:00:42;;;;;;;3.20;1.10;;;;;;;18.24;53.98;100658.97;5589042;31;35230;-68
2022/07/11 07:03:45;;;;;;;2.28;0.80;;;;;;;18.41;53.16;100662.00;5589087;31;34918;-68
2022/07/11 07:06:49;;;;;;;6.55;1.00;;;;;;;18.51;53.74;100661.56;5588069;31;32683;-68
2022/07/11 07:09:52;;;;;;;3.12;0.93;;;;;;;18.95;52.81;100661.59;5589271;31;34171;-68
2022/07/11 07:12:55;;;;;;;5.70;1.40;;;;;;;19.20;50.88;100666.22;5588361;31;32498;-68
2022/07/11 07:15:58;;;;;;;2.50;0.88;;;;;;;19.37;50.20;100665.47;5588673;31;34735;-68
2022/07/11 07:19:01;;;;;;;5.15;1.17;;;;;;;19.73;49.58;100669.34;5588772;31;34032;-68
2022/07/11 07:22:05;;;;;;;5.25;0.95;;;;;;;19.96;48.87;100669.53;5588618;31;34591;-68
2022/07/11 07:25:08;;;;;;;6.32;1.05;;;;;;;19.78;49.60;100674.91;5588700;31;33906;-67
2022/07/11 07:28:11;;;;;;;2.83;0.90;;;;;;;19.41;49.57;100679.31;5587582;31;32780;-68
2022/07/11 07:31:16;;;;;;;3.45;0.90;;;;;;;19.29;49.70;100671.09;5574681;31;33179;-67
2022/07/11 07:34:20;;;;;;;6.35;1.10;;;;;;;18.96;50.92;100670.50;5588428;31;34117;-69
2022/07/11 07:37:23;;;;;;;1.80;0.77;;;;;;;18.75;51.38;100681.53;5588514;31;33876;-68
2022/07/11 07:40:25;;;;;;;2.50;1.00;;;;;;;18.72;51.44;100668.56;5588601;31;34001;-69
2022/07/11 07:43:30;;;;;;;4.78;0.70;;;;;;;18.69;51.24;100672.47;5588382;31;34313;-68
2022/07/11 07:46:32;;;;;;;2.22;0.90;;;;;;;18.79;51.16;100669.31;5588360;31;35300;-68
2022/07/11 07:49:35;;;;;;;4.25;0.90;;;;;;;19.28;50.06;100676.69;5587174;31;33656;-68
2022/07/11 07:52:38;;;;;;;2.05;0.90;;;;;;;19.48;49.14;100670.19;5587966;31;34084;-68
2022/07/11 07:55:41;;;;;;;5.78;0.80;;;;;;;19.22;49.82;100678.38;5588087;31;34594;-68
2022/07/11 07:58:43;;;;;;;3.40;1.00;;;;;;;18.93;50.00;100682.50;5588240;31;34583;-69
2022/07/11 08:01:47;;;;;;;3.37;1.00;;;;;;;18.80;50.87;100682.56;5587923;31;34016;-68
2022/07/11 08:04:50;;;;;;;4.60;0.90;;;;;;;18.58;52.03;100667.78;5587727;31;34014;-68
2022/07/11 08:07:53;;;;;;;2.62;0.95;;;;;;;18.49;52.39;100667.16;5587736;31;34022;-68
2022/07/11 08:10:59;;;;;;;4.37;1.30;;;;;;;18.73;52.19;100671.03;5587748;31;34248;-69
2022/07/11 08:14:22;;;;;;;2.90;0.80;;;;;;;19.65;50.21;100673.16;5587639;31;34246;-68
2022/07/11 08:17:25;;;;;;;4.35;0.98;;;;;;;19.80;47.73;100656.66;5587382;31;34104;-68
2022/07/11 08:20:28;;;;;;;8.50;0.90;;;;;;;20.50;46.96;100663.41;5587618;31;35205;-70
2022/07/11 08:23:32;;;;;;;2.87;0.90;;;;;;;20.79;45.58;100662.62;5587844;31;33955;-68
2022/07/11 08:26:34;;;;;;;8.52;1.10;;;;;;;20.63;46.14;100657.84;5587707;31;33965;-68
2022/07/11 08:29:37;;;;;;;3.37;1.00;;;;;;;20.81;45.70;100657.00;5589062;31;33191;-68
2022/07/11 08:32:41;;;;;;;5.72;0.80;;;;;;;22.16;42.38;100654.47;5590470;31;34039;-67
2022/07/11 08:35:45;;;;;;;5.03;0.90;;;;;;;23.37;39.21;100651.47;5590358;31;34198;-66
2022/07/11 08:38:50;;;;;;;6.15;0.80;;;;;;;23.20;38.78;100647.88;5589519;31;34189;-68
2022/07/11 08:41:56;;;;;;;3.65;0.70;;;;;;;23.70;38.15;100647.94;5590083;31;34090;-65
2022/07/11 08:44:59;;;;;;;7.80;0.90;;;;;;;25.46;34.77;100649.28;5590266;31;34581;-66
2022/07/11 08:48:02;;;;;;;2.83;0.85;;;;;;;26.86;32.61;100644.16;5590320;31;35221;-68
2022/07/11 08:51:05;;;;;;;2.30;0.77;;;;;;;26.20;32.37;100646.56;5590220;31;33920;-67
2022/07/11 08:54:12;;;;;;;3.37;1.12;;;;;;;24.79;34.02;100646.16;5590215;31;34330;-66
2022/07/11 08:57:15;;;;;;;3.95;0.90;;;;;;;23.87;35.18;100642.53;5590500;31;34086;-65
2022/07/11 09:00:19;;;;;;;3.83;0.70;;;;;;;24.41;34.45;100633.53;5590111;31;34008;-66
2022/07/11 09:03:22;;;;;;;5.55;0.60;;;;;;;24.45;34.39;100628.41;5589959;31;33891;-66
2022/07/11 09:06:25;;;;;;;2.12;0.90;;;;;;;24.32;34.53;100636.94;5590186;31;34227;-66
2022/07/11 09:09:28;;;;;;;2.97;1.00;;;;;;;23.74;35.09;100630.13;5590294;31;34346;-66
2022/07/11 09:12:31;;;;;;;3.25;0.70;;;;;;;25.37;32.72;100631.84;5589890;31;33387;-67
2022/07/11 09:15:36;;;;;;;2.37;0.70;;;;;;;25.80;32.22;100630.81;5589718;31;33560;-66
2022/07/11 09:18:40;;;;;;;3.42;0.60;;;;;;;26.92;29.48;100621.28;5589753;31;34022;-66
2022/07/11 09:25:31;;;;;;;1.60;0.60;;;;;;;26.97;28.55;100623.19;5577508;31;34012;-68
2022/07/11 09:28:33;;;;;;;3.00;0.60;;;;;;;25.68;30.73;100608.47;5589591;31;34048;-66
2022/07/11 09:31:38;;;;;;;3.35;0.73;;;;;;;27.22;27.54;100612.34;5588951;31;33396;-67
2022/07/11 09:34:59;;;;;;;3.95;0.70;;;;;;;26.86;28.54;100616.09;5589836;31;34647;-65
2022/07/11 09:38:07;;;;;;;2.90;0.62;;;;;;;27.53;26.65;100602.28;5589941;31;34160;-65
2022/07/11 09:41:12;;;;;;;2.83;0.75;;;;;;;29.67;24.49;100601.75;5589855;31;34793;-67
2022/07/11 09:44:19;;;;;;;1.92;0.68;;;;;;;28.95;24.52;100594.38;5590185;31;34605;-65
2022/07/11 09:47:22;;;;;;;8.07;0.90;;;;;;;28.35;24.23;100595.53;5589299;31;33264;-67
2022/07/11 09:50:30;;;;;;;3.05;0.68;;;;;;;26.97;26.96;100596.78;5588873;31;32243;-67
2022/07/11 09:53:52;;;;;;;2.85;0.80;;;;;;;25.99;28.82;100592.34;5589863;31;33205;-66
2022/07/11 09:56:55;;;;;;;2.65;0.88;;;;;;;27.26;27.02;100588.91;5589609;31;33921;-66
2022/07/11 10:00:01;;;;;;;2.62;0.65;;;;;;;27.94;25.62;100601.09;5589900;31;35224;-67
2022/07/11 10:03:07;;;;;;;1.92;0.52;;;;;;;27.90;25.78;100591.84;5589317;31;34310;-68
2022/07/11 10:06:30;;;;;;;3.55;0.70;;;;;;;26.69;27.16;100597.25;5589824;31;34630;-66
2022/07/11 10:09:32;;;;;;;1.80;0.70;;;;;;;28.23;24.81;100584.94;5589857;31;34046;-67
2022/07/11 10:12:36;;;;;;;4.18;0.80;;;;;;;27.93;24.92;100585.81;5589051;31;33687;-68
2022/07/11 10:15:44;;;;;;;3.70;0.73;;;;;;;28.36;25.37;100576.16;5589719;31;35232;-68
2022/07/11 10:19:22;;;;;;;2.55;0.90;;;;;;;28.64;24.46;100582.00;5588608;31;32670;-68
2022/07/11 10:22:48;;;;;;;3.20;0.75;;;;;;;29.38;22.69;100576.31;5590042;31;34260;-67
2022/07/11 10:26:12;;;;;;;3.62;0.90;;;;;;;27.56;24.50;100574.47;5589516;31;34085;-69
2022/07/11 10:29:23;;;;;;;3.53;0.77;;;;;;;26.59;24.78;100573.56;5585721;31;117867;-67
2022/07/11 10:32:26;;;;;;;5.95;0.80;;;;;;;26.11;25.63;100565.75;5589468;31;33828;-67
2022/07/11 10:35:29;;;;;;;5.00;1.00;;;;;;;26.08;26.03;100571.72;5588851;31;32404;-67
2022/07/11 10:38:32;;;;;;;3.87;0.68;;;;;;;24.33;28.87;100584.34;5588916;31;33166;-68
2022/07/11 10:41:36;;;;;;;6.37;0.95;;;;;;;23.48;30.22;100573.94;5588965;31;34203;-67
2022/07/11 10:44:54;;;;;;;3.17;0.80;;;;;;;24.89;28.67;100574.94;5588363;31;33453;-67
2022/07/11 10:48:09;;;;;;;2.83;0.75;;;;;;;25.92;26.50;100568.13;5588696;31;32437;-67
2022/07/11 10:51:43;;;;;;;2.87;1.05;;;;;;;26.77;26.38;100564.88;5587746;31;32717;-68
2022/07/11 10:55:17;;;;;;;3.30;0.88;;;;;;;29.44;22.46;100561.47;5589213;31;33957;-67
2022/07/11 10:58:31;;;;;;;3.50;0.93;;;;;;;26.66;25.44;100567.88;5588853;31;34343;-67
2022/07/11 11:01:33;;;;;;;4.55;0.90;;;;;;;27.34;25.45;100563.84;5588871;31;34556;-66
2022/07/11 11:04:47;;;;;;;2.62;0.90;;;;;;;28.85;23.23;100564.44;5575324;31;33744;-66
2022/07/11 11:07:51;;;;;;;1.77;0.75;;;;;;;28.76;22.39;100552.47;5589500;31;34556;-67
2022/07/11 11:10:54;;;;;;;2.83;0.70;;;;;;;29.16;22.63;100556.78;5575507;31;33101;-66
2022/07/11 11:14:26;;;;;;;3.50;0.82;;;;;;;29.44;22.42;100547.81;5588261;31;33417;-67
2022/07/11 11:17:36;;;;;;;3.42;0.85;;;;;;;30.50;20.73;100559.47;5588934;31;34647;-67
2022/07/11 11:20:39;;;;;;;11.18;1.50;;;;;;;29.83;20.63;100557.78;5589390;31;34511;-67
2022/07/11 11:23:45;;;;;;;2.53;0.60;;;;;;;27.19;24.43;100551.06;5588888;31;33852;-67
2022/07/11 11:26:52;;;;;;;6.12;0.82;;;;;;;27.05;24.79;100554.59;5588745;31;34093;-66
2022/07/11 11:29:56;;;;;;;5.22;0.80;;;;;;;26.44;26.33;100559.09;5587832;31;32555;-67
2022/07/11 11:33:15;;;;;;;4.22;0.82;;;;;;;27.35;24.43;100548.31;5588696;31;33978;-67
2022/07/11 11:36:21;;;;;;;4.85;0.82;;;;;;;30.38;21.19;100539.91;5587989;31;33374;-67
2022/07/11 11:39:34;;;;;;;5.37;0.95;;;;;;;29.18;22.40;100557.34;5588842;31;33903;-67
2022/07/11 11:42:39;;;;;;;4.53;0.80;;;;;;;30.30;22.04;100551.50;5588582;31;34054;-66
2022/07/11 11:45:49;;;;;;;4.65;0.65;;;;;;;26.49;25.29;100556.38;5588165;31;34825;-66
2022/07/11 11:48:55;;;;;;;7.40;0.82;;;;;;;28.37;23.88;100555.16;5588442;31;34566;-66
2022/07/11 11:51:58;;;;;;;3.12;0.60;;;;;;;27.85;24.79;100563.78;5588195;31;34620;-65
2022/07/11 11:55:01;;;;;;;4.00;1.00;;;;;;;28.57;24.23;100565.94;5574662;31;33201;-66
2022/07/11 11:58:03;;;;;;;3.35;0.77;;;;;;;30.51;22.18;100566.56;5588091;31;33977;-67
2022/07/11 12:01:07;;;;;;;9.95;0.90;;;;;;;31.69;20.63;100570.69;5574433;31;33978;-64
2022/07/11 12:04:12;;;;;;;2.15;0.60;;;;;;;32.20;19.50;100564.19;5590860;31;33970;-66
2022/07/11 12:07:22;;;;;;;3.83;0.65;;;;;;;28.39;22.03;100577.50;5591140;31;33926;-68
2022/07/11 12:10:24;;;;;;;1.33;0.60;;;;;;;27.64;23.46;100563.81;5590730;31;34573;-66
2022/07/11 12:13:28;;;;;;;4.87;0.82;;;;;;;26.13;25.41;100550.00;5590746;31;33870;-66
2022/07/11 12:16:39;;;;;;;1.85;0.80;;;;;;;25.98;25.94;100550.75;5590913;31;34117;-66
2022/07/11 12:19:43;;;;;;;5.75;0.90;;;;;;;29.86;21.86;100558.03;5590626;31;33943;-65
2022/07/11 12:22:47;;;;;;;5.95;1.08;;;;;;;30.20;20.87;100544.25;5590808;31;34052;-66
2022/07/11 12:25:52;;;;;;;4.00;0.80;;;;;;;30.86;20.42;100549.59;5590520;31;33998;-66
2022/07/11 12:29:07;;;;;;;2.22;0.73;;;;;;;33.14;18.08;100551.31;5590404;31;34237;-65
2022/07/11 12:32:13;;;;;;;5.60;0.80;;;;;;;33.56;18.03;100549.13;5590358;31;35279;-64
2022/07/11 12:35:16;;;;;;;5.15;0.82;;;;;;;32.73;17.90;100554.22;5590367;31;34247;-66
2022/07/11 12:38:19;;;;;;;4.50;0.80;;;;;;;33.93;17.19;100553.38;5590004;31;33018;-65
2022/07/11 12:41:22;;;;;;;4.60;1.00;;;;;;;34.38;16.92;100557.53;5590533;31;34557;-66
2022/07/11 12:47:53;;;;;;;1.85;0.60;;;;;;;30.02;20.36;100553.22;5590146;31;34287;-66
2022/07/11 12:50:56;;;;;;;2.28;0.85;;;;;;;27.88;22.69;100557.78;5589556;31;33259;-67
2022/07/11 12:54:04;;;;;;;3.55;0.90;;;;;;;27.28;23.66;100547.78;5590383;31;34272;-69
2022/07/11 12:57:10;;;;;;;2.03;0.68;;;;;;;30.39;20.19;100536.88;5589994;31;34230;-67
2022/07/11 13:00:16;;;;;;;7.00;0.77;;;;;;;31.08;19.56;100540.81;5590188;31;34018;-67
2022/07/11 13:03:31;;;;;;;3.60;0.70;;;;;;;30.12;21.18;100532.03;5589579;31;34665;-68
2022/07/11 13:10:05;;;;;;;2.60;0.90;;;;;;;34.37;16.73;100533.09;5590039;31;34710;-66
2022/07/11 13:13:08;;;;;;;5.20;1.37;;;;;;;34.29;17.27;100531.09;5588944;31;33984;-67
2022/07/11 13:16:11;;;;;;;5.90;0.98;;;;;;;34.17;17.85;100523.47;5590181;31;33934;-66
2022/07/11 13:19:14;;;;;;;2.30;0.60;;;;;;;30.37;20.44;100533.59;5589841;31;34135;-67
2022/07/11 13:22:17;;;;;;;8.05;0.90;;;;;;;26.40;25.25;100523.44;5590244;31;34546;-66
2022/07/11 13:25:21;;;;;;;4.20;1.37;;;;;;;25.49;26.97;100523.81;5589870;31;33984;-66
2022/07/11 13:28:24;;;;;;;4.87;0.77;;;;;;;23.68;30.24;100529.00;5588968;31;34537;-67
2022/07/11 13:31:27;;;;;;;3.10;0.90;;;;;;;23.34;30.81;100535.50;5589373;31;33964;-66
2022/07/11 13:34:30;;;;;;;3.72;0.70;;;;;;;23.50;30.56;100531.19;5589204;31;32318;-66
2022/07/11 13:37:35;;;;;;;2.55;0.80;;;;;;;25.66;28.12;100537.25;5589832;31;35397;-68
2022/07/11 13:40:38;;;;;;;5.70;0.90;;;;;;;25.98;26.24;100534.44;5589603;31;34273;-67
2022/07/11 13:43:41;;;;;;;2.85;0.77;;;;;;;26.37;25.21;100522.09;5589756;31;33908;-67
2022/07/11 13:46:43;;;;;;;1.20;0.65;;;;;;;29.44;21.49;100523.22;5589831;31;34210;-68
2022/07/11 13:49:46;;;;;;;1.40;0.73;;;;;;;32.46;18.44;100520.53;5589575;31;34196;-68
2022/07/11 13:52:51;;;;;;;3.58;0.88;;;;;;;29.68;21.32;100509.56;5588946;31;34030;-67
2022/07/11 13:55:54;;;;;;;7.03;0.80;;;;;;;29.98;21.30;100522.09;5589550;31;34605;-68
2022/07/11 13:58:57;;;;;;;4.85;1.05;;;;;;;26.36;25.82;100522.34;5588961;31;34775;-67
2022/07/11 14:02:00;;;;;;;3.22;0.77;;;;;;;24.38;29.27;100535.59;5589699;31;35180;-67
2022/07/11 14:05:04;;;;;;;5.12;1.00;;;;;;;23.27;31.34;100530.28;5588996;31;34187;-67
2022/07/11 14:08:07;;;;;;;4.95;1.05;;;;;;;22.77;31.83;100527.56;5589258;31;34777;-68
2022/07/11 14:11:09;;;;;;;4.68;1.15;;;;;;;22.55;32.34;100526.59;5589290;31;34581;-66
2022/07/11 14:14:12;;;;;;;3.40;0.80;;;;;;;22.41;33.26;100517.12;5588105;31;32384;-66
2022/07/11 14:17:15;;;;;;;2.83;0.90;;;;;;;22.11;34.55;100533.59;5588638;31;34411;-66
2022/07/11 14:20:18;;;;;;;5.55;1.08;;;;;;;22.55;34.29;100534.72;5589118;31;34879;-66
2022/07/11 14:23:23;;;;;;;4.47;0.90;;;;;;;22.64;34.15;100525.13;5588829;31;35199;-67
2022/07/11 14:26:26;;;;;;;3.45;0.98;;;;;;;22.88;34.18;100534.78;5588047;31;34272;-67
2022/07/11 14:29:31;;;;;;;4.85;0.85;;;;;;;23.18;34.18;100533.66;5589028;31;34022;-67
2022/07/11 14:32:35;;;;;;;4.12;1.00;;;;;;;23.31;34.18;100544.97;5587808;31;33716;-67